FDMS Airport Information

Runway Information
Runway 07 Length 8530 ft width 148 ft Elevation 2027 ft Threshold N/A Heading 53
Runway 25 Length 8530 ft Width 148 ft Elevation 2075 ft Threshold N/A Heading 233
Airport Frequencies
Type APP Name APP Frequency 124.9 MHZ
Type GND Name GND Frequency 121.7 MHZ
Type TWR Name TWR Frequency 124.9 MHZ
Airport Navaids
Type NDB Name Matsapha Frequency 263 KHZ
Type VOR-DME Name Matsapha Frequency 112300 KHZ
Airport Weather Information & NOTAM
ADDS - METARS form results

(1607 UTC 02 December 2022)
Data provider http://aviationweather.gov/metar/data/
 
Forecast for: FDMS (MANZINI/MATSAPA , SZ)
Text: FDMS 020700Z 0209/0218 01010KT CAVOK
Forecast period: 0900 to 1800 UTC 02 December 2022
Forecast type: FROM: standard forecast or significant change
Winds: from the N (10 degrees) at 12 MPH (10 knots; 5.1 m/s)
Visibility: 6 or more miles (10+ km)
Ceiling: unknown
Clouds: missing
Weather: NSW  (no significant weather)